sensor_id;sensor_type;location;lat;lon;timestamp;temperature;humidity
39899;DHT22;25571;47.876;10.642;2023-06-24T00:00:36;16.50;99.90
39899;DHT22;25571;47.876;10.642;2023-06-24T00:03:02;16.60;99.90
39899;DHT22;25571;47.876;10.642;2023-06-24T00:05:28;16.50;99.90
39899;DHT22;25571;47.876;10.642;2023-06-24T00:07:53;16.50;99.90
39899;DHT22;25571;47.876;10.642;2023-06-24T00:10:22;16.50;99.90
39899;DHT22;25571;47.876;10.642;2023-06-24T00:12:47;16.50;99.90
39899;DHT22;25571;47.876;10.642;2023-06-24T00:15:13;16.60;99.90
39899;DHT22;25571;47.876;10.642;2023-06-24T00:17:39;16.60;99.90
39899;DHT22;25571;47.876;10.642;2023-06-24T00:20:05;16.60;99.90
39899;DHT22;25571;47.876;10.642;2023-06-24T00:22:32;16.60;99.90
39899;DHT22;25571;47.876;10.642;2023-06-24T00:24:58;16.60;99.90
39899;DHT22;25571;47.876;10.642;2023-06-24T00:27:25;16.50;99.90
39899;DHT22;25571;47.876;10.642;2023-06-24T00:29:51;16.40;99.90
39899;DHT22;25571;47.876;10.642;2023-06-24T00:32:16;16.40;99.90
39899;DHT22;25571;47.876;10.642;2023-06-24T00:34:42;16.30;99.90
39899;DHT22;25571;47.876;10.642;2023-06-24T00:37:09;16.30;99.90
39899;DHT22;25571;47.876;10.642;2023-06-24T00:39:34;16.40;99.90
39899;DHT22;25571;47.876;10.642;2023-06-24T00:42:00;16.50;99.90
39899;DHT22;25571;47.876;10.642;2023-06-24T00:44:25;16.50;99.90
39899;DHT22;25571;47.876;10.642;2023-06-24T00:46:51;16.50;99.90
39899;DHT22;25571;47.876;10.642;2023-06-24T00:49:16;16.50;99.90
39899;DHT22;25571;47.876;10.642;2023-06-24T00:51:42;16.60;99.90
39899;DHT22;25571;47.876;10.642;2023-06-24T00:54:12;16.60;99.90
39899;DHT22;25571;47.876;10.642;2023-06-24T00:56:38;16.40;99.90
39899;DHT22;25571;47.876;10.642;2023-06-24T00:59:03;16.30;99.90
39899;DHT22;25571;47.876;10.642;2023-06-24T01:01:33;16.30;99.90
39899;DHT22;25571;47.876;10.642;2023-06-24T01:03:59;16.30;99.90
39899;DHT22;25571;47.876;10.642;2023-06-24T01:06:25;16.30;99.90
39899;DHT22;25571;47.876;10.642;2023-06-24T01:08:55;16.40;99.90
39899;DHT22;25571;47.876;10.642;2023-06-24T01:11:22;16.30;99.90
39899;DHT22;25571;47.876;10.642;2023-06-24T01:13:48;16.30;99.90
39899;DHT22;25571;47.876;10.642;2023-06-24T01:16:15;16.30;99.90
39899;DHT22;25571;47.876;10.642;2023-06-24T01:18:52;16.40;99.90
39899;DHT22;25571;47.876;10.642;2023-06-24T01:32:15;16.40;99.90
39899;DHT22;25571;47.876;10.642;2023-06-24T01:34:47;16.50;99.90
39899;DHT22;25571;47.876;10.642;2023-06-24T01:37:15;16.40;99.90
39899;DHT22;25571;47.876;10.642;2023-06-24T01:39:47;16.40;99.90
39899;DHT22;25571;47.876;10.642;2023-06-24T01:42:14;16.50;99.90
39899;DHT22;25571;47.876;10.642;2023-06-24T01:44:40;16.50;99.90
39899;DHT22;25571;47.876;10.642;2023-06-24T01:47:07;16.50;99.90
39899;DHT22;25571;47.876;10.642;2023-06-24T01:49:33;16.50;99.90
39899;DHT22;25571;47.876;10.642;2023-06-24T01:52:03;16.50;99.90
39899;DHT22;25571;47.876;10.642;2023-06-24T01:54:29;16.50;99.90
39899;DHT22;25571;47.876;10.642;2023-06-24T01:56:56;16.50;99.90
39899;DHT22;25571;47.876;10.642;2023-06-24T01:59:22;16.60;99.90
39899;DHT22;25571;47.876;10.642;2023-06-24T02:01:48;16.50;99.90
39899;DHT22;25571;47.876;10.642;2023-06-24T02:04:16;16.50;99.90
39899;DHT22;25571;47.876;10.642;2023-06-24T02:06:42;16.60;99.90
39899;DHT22;25571;47.876;10.642;2023-06-24T02:09:09;16.60;99.90
39899;DHT22;25571;47.876;10.642;2023-06-24T02:11:35;16.60;99.90
39899;DHT22;25571;47.876;10.642;2023-06-24T02:14:02;16.60;99.90
39899;DHT22;25571;47.876;10.642;2023-06-24T02:16:28;16.50;99.90
39899;DHT22;25571;47.876;10.642;2023-06-24T02:18:54;16.60;99.90
39899;DHT22;25571;47.876;10.642;2023-06-24T02:21:20;16.60;99.90
39899;DHT22;25571;47.876;10.642;2023-06-24T02:23:47;16.60;99.90
39899;DHT22;25571;47.876;10.642;2023-06-24T02:26:13;16.50;99.90
39899;DHT22;25571;47.876;10.642;2023-06-24T02:28:40;16.30;99.90
39899;DHT22;25571;47.876;10.642;2023-06-24T02:31:06;16.30;99.90
39899;DHT22;25571;47.876;10.642;2023-06-24T02:33:33;16.40;99.90
39899;DHT22;25571;47.876;10.642;2023-06-24T02:35:59;16.50;99.90
39899;DHT22;25571;47.876;10.642;2023-06-24T02:38:24;16.60;99.90
39899;DHT22;25571;47.876;10.642;2023-06-24T02:40:50;16.60;99.90
39899;DHT22;25571;47.876;10.642;2023-06-24T02:43:16;16.60;99.90
39899;DHT22;25571;47.876;10.642;2023-06-24T02:45:42;16.60;99.90
39899;DHT22;25571;47.876;10.642;2023-06-24T02:48:08;16.60;99.90
39899;DHT22;25571;47.876;10.642;2023-06-24T02:50:34;16.60;99.90
39899;DHT22;25571;47.876;10.642;2023-06-24T02:53:01;16.60;99.90
39899;DHT22;25571;47.876;10.642;2023-06-24T02:55:26;16.60;99.90
39899;DHT22;25571;47.876;10.642;2023-06-24T02:57:52;16.60;99.90
39899;DHT22;25571;47.876;10.642;2023-06-24T03:00:18;16.50;99.90
39899;DHT22;25571;47.876;10.642;2023-06-24T03:02:44;16.50;99.90
39899;DHT22;25571;47.876;10.642;2023-06-24T03:05:11;16.50;99.90
39899;DHT22;25571;47.876;10.642;2023-06-24T03:07:37;16.50;99.90
39899;DHT22;25571;47.876;10.642;2023-06-24T03:10:03;16.50;99.90
39899;DHT22;25571;47.876;10.642;2023-06-24T03:12:31;16.40;99.90
39899;DHT22;25571;47.876;10.642;2023-06-24T03:14:56;16.30;99.90
39899;DHT22;25571;47.876;10.642;2023-06-24T03:17:22;16.40;99.90
39899;DHT22;25571;47.876;10.642;2023-06-24T03:19:47;16.20;99.90
39899;DHT22;25571;47.876;10.642;2023-06-24T03:22:13;16.10;99.90
39899;DHT22;25571;47.876;10.642;2023-06-24T03:24:38;16.00;99.90
39899;DHT22;25571;47.876;10.642;2023-06-24T03:27:04;15.90;99.90
39899;DHT22;25571;47.876;10.642;2023-06-24T03:29:29;15.90;99.90
39899;DHT22;25571;47.876;10.642;2023-06-24T03:31:55;15.80;99.90
39899;DHT22;25571;47.876;10.642;2023-06-24T03:34:20;15.80;99.90
39899;DHT22;25571;47.876;10.642;2023-06-24T03:36:46;15.70;99.90
39899;DHT22;25571;47.876;10.642;2023-06-24T03:39:12;15.60;99.90
39899;DHT22;25571;47.876;10.642;2023-06-24T03:41:37;15.60;99.90
39899;DHT22;25571;47.876;10.642;2023-06-24T03:44:04;15.60;99.90
39899;DHT22;25571;47.876;10.642;2023-06-24T03:46:29;15.70;99.90
39899;DHT22;25571;47.876;10.642;2023-06-24T03:48:58;15.60;99.90
39899;DHT22;25571;47.876;10.642;2023-06-24T03:51:23;15.50;99.90
39899;DHT22;25571;47.876;10.642;2023-06-24T03:53:49;15.50;99.90
39899;DHT22;25571;47.876;10.642;2023-06-24T03:56:15;15.50;99.90
39899;DHT22;25571;47.876;10.642;2023-06-24T03:58:41;15.50;99.90
39899;DHT22;25571;47.876;10.642;2023-06-24T04:01:06;15.50;99.90
39899;DHT22;25571;47.876;10.642;2023-06-24T04:03:32;15.50;99.90
39899;DHT22;25571;47.876;10.642;2023-06-24T04:05:57;15.50;99.90
39899;DHT22;25571;47.876;10.642;2023-06-24T04:08:23;15.40;99.90
39899;DHT22;25571;47.876;10.642;2023-06-24T04:10:50;15.40;99.90
39899;DHT22;25571;47.876;10.642;2023-06-24T04:13:16;15.50;99.90
39899;DHT22;25571;47.876;10.642;2023-06-24T04:15:41;15.50;99.90
39899;DHT22;25571;47.876;10.642;2023-06-24T04:18:07;15.40;99.90
39899;DHT22;25571;47.876;10.642;2023-06-24T04:20:33;15.40;99.90
39899;DHT22;25571;47.876;10.642;2023-06-24T04:22:59;15.40;99.90
39899;DHT22;25571;47.876;10.642;2023-06-24T04:25:25;15.50;99.90
39899;DHT22;25571;47.876;10.642;2023-06-24T04:27:51;15.50;99.90
39899;DHT22;25571;47.876;10.642;2023-06-24T04:30:16;15.50;99.90
39899;DHT22;25571;47.876;10.642;2023-06-24T04:32:42;15.40;99.90
39899;DHT22;25571;47.876;10.642;2023-06-24T04:35:08;15.50;99.90
39899;DHT22;25571;47.876;10.642;2023-06-24T04:37:33;15.60;99.90
39899;DHT22;25571;47.876;10.642;2023-06-24T04:39:59;15.60;99.90
39899;DHT22;25571;47.876;10.642;2023-06-24T04:42:24;15.60;99.90
39899;DHT22;25571;47.876;10.642;2023-06-24T04:44:50;15.60;99.90
39899;DHT22;25571;47.876;10.642;2023-06-24T04:47:18;15.60;99.90
39899;DHT22;25571;47.876;10.642;2023-06-24T04:49:43;15.70;99.90
39899;DHT22;25571;47.876;10.642;2023-06-24T04:52:10;15.80;99.90
39899;DHT22;25571;47.876;10.642;2023-06-24T04:54:35;15.80;99.90
39899;DHT22;25571;47.876;10.642;2023-06-24T04:57:01;15.90;99.90
39899;DHT22;25571;47.876;10.642;2023-06-24T04:59:26;16.00;99.90
39899;DHT22;25571;47.876;10.642;2023-06-24T05:01:52;16.00;99.90
39899;DHT22;25571;47.876;10.642;2023-06-24T05:04:17;16.00;99.90
39899;DHT22;25571;47.876;10.642;2023-06-24T05:06:43;16.00;99.90
39899;DHT22;25571;47.876;10.642;2023-06-24T05:09:08;16.00;99.90
39899;DHT22;25571;47.876;10.642;2023-06-24T05:11:38;16.10;99.90
39899;DHT22;25571;47.876;10.642;2023-06-24T05:14:04;16.10;99.90
39899;DHT22;25571;47.876;10.642;2023-06-24T05:16:29;16.10;99.90
39899;DHT22;25571;47.876;10.642;2023-06-24T05:18:55;16.20;99.90
39899;DHT22;25571;47.876;10.642;2023-06-24T05:21:20;16.30;99.90
39899;DHT22;25571;47.876;10.642;2023-06-24T05:23:45;16.30;99.90
39899;DHT22;25571;47.876;10.642;2023-06-24T05:26:11;16.50;99.90
39899;DHT22;25571;47.876;10.642;2023-06-24T05:28:36;16.50;99.90
39899;DHT22;25571;47.876;10.642;2023-06-24T05:31:02;16.60;99.90
39899;DHT22;25571;47.876;10.642;2023-06-24T05:33:27;16.70;99.90
39899;DHT22;25571;47.876;10.642;2023-06-24T05:35:53;16.80;99.90
39899;DHT22;25571;47.876;10.642;2023-06-24T05:38:18;16.80;99.90
39899;DHT22;25571;47.876;10.642;2023-06-24T05:40:44;17.00;99.90
39899;DHT22;25571;47.876;10.642;2023-06-24T05:43:09;17.00;99.90
39899;DHT22;25571;47.876;10.642;2023-06-24T05:45:36;17.00;99.90
39899;DHT22;25571;47.876;10.642;2023-06-24T05:48:02;17.10;99.90
39899;DHT22;25571;47.876;10.642;2023-06-24T05:50:28;17.20;99.90
39899;DHT22;25571;47.876;10.642;2023-06-24T05:52:53;17.30;99.90
39899;DHT22;25571;47.876;10.642;2023-06-24T05:55:19;17.40;99.90
39899;DHT22;25571;47.876;10.642;2023-06-24T05:57:44;17.50;99.90
39899;DHT22;25571;47.876;10.642;2023-06-24T06:00:10;17.60;99.90
39899;DHT22;25571;47.876;10.642;2023-06-24T06:02:35;17.70;99.90
39899;DHT22;25571;47.876;10.642;2023-06-24T06:05:01;17.80;99.90
39899;DHT22;25571;47.876;10.642;2023-06-24T06:07:26;17.90;99.90
39899;DHT22;25571;47.876;10.642;2023-06-24T06:09:52;18.10;99.90
39899;DHT22;25571;47.876;10.642;2023-06-24T06:12:17;18.20;99.90
39899;DHT22;25571;47.876;10.642;2023-06-24T06:14:43;18.30;99.90
39899;DHT22;25571;47.876;10.642;2023-06-24T06:17:08;18.50;99.90
39899;DHT22;25571;47.876;10.642;2023-06-24T06:19:34;18.60;99.90
39899;DHT22;25571;47.876;10.642;2023-06-24T06:21:59;18.60;99.90
39899;DHT22;25571;47.876;10.642;2023-06-24T06:24:25;18.70;99.90
39899;DHT22;25571;47.876;10.642;2023-06-24T06:26:51;18.90;99.90
39899;DHT22;25571;47.876;10.642;2023-06-24T06:29:16;19.10;99.90
39899;DHT22;25571;47.876;10.642;2023-06-24T06:31:42;19.30;99.90
39899;DHT22;25571;47.876;10.642;2023-06-24T06:34:07;19.60;99.90
39899;DHT22;25571;47.876;10.642;2023-06-24T06:36:34;19.70;99.90
39899;DHT22;25571;47.876;10.642;2023-06-24T06:38:59;19.80;99.90
39899;DHT22;25571;47.876;10.642;2023-06-24T06:41:25;19.80;99.90
39899;DHT22;25571;47.876;10.642;2023-06-24T06:43:51;20.00;99.90
39899;DHT22;25571;47.876;10.642;2023-06-24T06:46:16;20.30;99.90
39899;DHT22;25571;47.876;10.642;2023-06-24T06:48:42;20.60;99.90
39899;DHT22;25571;47.876;10.642;2023-06-24T06:51:07;20.60;99.90
39899;DHT22;25571;47.876;10.642;2023-06-24T06:53:33;20.50;99.90
39899;DHT22;25571;47.876;10.642;2023-06-24T06:55:58;20.50;99.90
39899;DHT22;25571;47.876;10.642;2023-06-24T06:58:24;20.80;99.90
39899;DHT22;25571;47.876;10.642;2023-06-24T07:00:49;20.60;99.90
39899;DHT22;25571;47.876;10.642;2023-06-24T07:03:15;20.60;99.90
39899;DHT22;25571;47.876;10.642;2023-06-24T07:05:41;20.30;99.90
39899;DHT22;25571;47.876;10.642;2023-06-24T07:08:06;20.40;99.90
39899;DHT22;25571;47.876;10.642;2023-06-24T07:10:32;20.50;99.90
39899;DHT22;25571;47.876;10.642;2023-06-24T07:12:57;20.70;99.90
39899;DHT22;25571;47.876;10.642;2023-06-24T07:15:26;21.00;99.90
39899;DHT22;25571;47.876;10.642;2023-06-24T07:17:52;21.00;99.90
39899;DHT22;25571;47.876;10.642;2023-06-24T07:20:18;21.10;99.90
39899;DHT22;25571;47.876;10.642;2023-06-24T07:22:44;21.10;99.90
39899;DHT22;25571;47.876;10.642;2023-06-24T07:25:09;21.20;99.90
39899;DHT22;25571;47.876;10.642;2023-06-24T07:27:35;21.30;99.90
39899;DHT22;25571;47.876;10.642;2023-06-24T07:30:00;21.50;99.90
39899;DHT22;25571;47.876;10.642;2023-06-24T07:32:26;21.60;99.90
39899;DHT22;25571;47.876;10.642;2023-06-24T07:34:51;21.70;99.90
39899;DHT22;25571;47.876;10.642;2023-06-24T07:37:17;21.80;99.70
39899;DHT22;25571;47.876;10.642;2023-06-24T07:39:42;21.50;98.80
39899;DHT22;25571;47.876;10.642;2023-06-24T07:42:08;21.60;99.20
39899;DHT22;25571;47.876;10.642;2023-06-24T07:44:33;21.70;99.40
39899;DHT22;25571;47.876;10.642;2023-06-24T07:46:59;22.10;98.90
39899;DHT22;25571;47.876;10.642;2023-06-24T07:49:24;22.10;98.40
39899;DHT22;25571;47.876;10.642;2023-06-24T07:51:50;22.10;98.10
39899;DHT22;25571;47.876;10.642;2023-06-24T07:54:15;22.00;96.30
39899;DHT22;25571;47.876;10.642;2023-06-24T07:56:40;22.00;96.30
39899;DHT22;25571;47.876;10.642;2023-06-24T07:59:07;22.50;96.90
39899;DHT22;25571;47.876;10.642;2023-06-24T08:01:32;22.80;96.40
39899;DHT22;25571;47.876;10.642;2023-06-24T08:03:58;23.00;94.80
39899;DHT22;25571;47.876;10.642;2023-06-24T08:06:23;22.80;94.60
39899;DHT22;25571;47.876;10.642;2023-06-24T08:08:49;22.70;92.80
39899;DHT22;25571;47.876;10.642;2023-06-24T08:11:15;23.20;93.00
39899;DHT22;25571;47.876;10.642;2023-06-24T08:13:41;23.60;92.10
39899;DHT22;25571;47.876;10.642;2023-06-24T08:16:06;23.80;92.10
39899;DHT22;25571;47.876;10.642;2023-06-24T08:18:34;25.00;90.60
39899;DHT22;25571;47.876;10.642;2023-06-24T08:20:59;24.40;91.10
39899;DHT22;25571;47.876;10.642;2023-06-24T08:23:25;24.30;91.00
39899;DHT22;25571;47.876;10.642;2023-06-24T08:25:50;25.40;90.10
39899;DHT22;25571;47.876;10.642;2023-06-24T08:28:16;26.40;88.80
39899;DHT22;25571;47.876;10.642;2023-06-24T08:30:41;26.40;86.90
39899;DHT22;25571;47.876;10.642;2023-06-24T08:33:07;25.40;86.40
39899;DHT22;25571;47.876;10.642;2023-06-24T08:35:32;25.00;88.00
39899;DHT22;25571;47.876;10.642;2023-06-24T08:37:57;24.70;87.80
39899;DHT22;25571;47.876;10.642;2023-06-24T08:40:23;24.50;89.50
39899;DHT22;25571;47.876;10.642;2023-06-24T08:42:48;24.60;87.80
39899;DHT22;25571;47.876;10.642;2023-06-24T08:45:14;26.30;84.10
39899;DHT22;25571;47.876;10.642;2023-06-24T08:47:40;26.20;83.60
39899;DHT22;25571;47.876;10.642;2023-06-24T08:50:08;27.00;82.50
39899;DHT22;25571;47.876;10.642;2023-06-24T08:52:36;26.30;80.10
39899;DHT22;25571;47.876;10.642;2023-06-24T08:55:04;25.60;81.30
39899;DHT22;25571;47.876;10.642;2023-06-24T08:57:31;25.00;81.60
39899;DHT22;25571;47.876;10.642;2023-06-24T08:59:57;23.80;86.50
39899;DHT22;25571;47.876;10.642;2023-06-24T09:02:22;25.90;82.20
39899;DHT22;25571;47.876;10.642;2023-06-24T09:04:49;27.60;76.40
39899;DHT22;25571;47.876;10.642;2023-06-24T09:07:23;27.80;74.00
39899;DHT22;25571;47.876;10.642;2023-06-24T09:09:48;29.70;72.00
39899;DHT22;25571;47.876;10.642;2023-06-24T09:12:14;32.20;62.80
39899;DHT22;25571;47.876;10.642;2023-06-24T09:14:39;29.80;65.50
39899;DHT22;25571;47.876;10.642;2023-06-24T09:17:06;27.90;69.20
39899;DHT22;25571;47.876;10.642;2023-06-24T09:19:31;28.30;70.40
39899;DHT22;25571;47.876;10.642;2023-06-24T09:24:27;27.00;70.90
39899;DHT22;25571;47.876;10.642;2023-06-24T09:26:55;26.40;73.70
39899;DHT22;25571;47.876;10.642;2023-06-24T09:29:22;24.80;75.90
39899;DHT22;25571;47.876;10.642;2023-06-24T09:31:50;24.60;77.00
39899;DHT22;25571;47.876;10.642;2023-06-24T09:34:18;24.90;76.70
39899;DHT22;25571;47.876;10.642;2023-06-24T09:36:44;24.60;75.70
39899;DHT22;25571;47.876;10.642;2023-06-24T09:39:10;24.30;79.40
39899;DHT22;25571;47.876;10.642;2023-06-24T09:41:36;23.90;78.70
39899;DHT22;25571;47.876;10.642;2023-06-24T09:44:02;24.40;80.20
39899;DHT22;25571;47.876;10.642;2023-06-24T09:46:29;25.10;78.60
39899;DHT22;25571;47.876;10.642;2023-06-24T09:48:55;24.60;76.50
39899;DHT22;25571;47.876;10.642;2023-06-24T09:51:21;25.00;76.30
39899;DHT22;25571;47.876;10.642;2023-06-24T09:53:48;24.90;76.20
39899;DHT22;25571;47.876;10.642;2023-06-24T09:56:14;24.30;77.90
39899;DHT22;25571;47.876;10.642;2023-06-24T09:58:40;24.70;75.40
39899;DHT22;25571;47.876;10.642;2023-06-24T10:01:07;23.80;77.10
39899;DHT22;25571;47.876;10.642;2023-06-24T10:03:34;23.40;76.50
39899;DHT22;25571;47.876;10.642;2023-06-24T10:06:03;23.40;75.90
39899;DHT22;25571;47.876;10.642;2023-06-24T10:08:29;23.20;78.80
39899;DHT22;25571;47.876;10.642;2023-06-24T10:10:55;23.70;78.70
39899;DHT22;25571;47.876;10.642;2023-06-24T10:13:21;23.60;78.00
39899;DHT22;25571;47.876;10.642;2023-06-24T10:15:46;23.30;76.70
39899;DHT22;25571;47.876;10.642;2023-06-24T10:20:53;23.10;77.30
39899;DHT22;25571;47.876;10.642;2023-06-24T10:23:19;22.70;78.50
39899;DHT22;25571;47.876;10.642;2023-06-24T10:25:46;23.00;80.00
39899;DHT22;25571;47.876;10.642;2023-06-24T10:28:12;23.10;78.80
39899;DHT22;25571;47.876;10.642;2023-06-24T10:30:37;23.00;77.00
39899;DHT22;25571;47.876;10.642;2023-06-24T10:33:03;22.80;78.30
39899;DHT22;25571;47.876;10.642;2023-06-24T10:35:28;22.90;81.00
39899;DHT22;25571;47.876;10.642;2023-06-24T10:37:59;23.10;79.00
39899;DHT22;25571;47.876;10.642;2023-06-24T10:40:34;23.60;79.30
39899;DHT22;25571;47.876;10.642;2023-06-24T10:43:00;23.40;76.80
39899;DHT22;25571;47.876;10.642;2023-06-24T10:45:25;23.00;77.80
39899;DHT22;25571;47.876;10.642;2023-06-24T10:47:51;22.70;78.80
39899;DHT22;25571;47.876;10.642;2023-06-24T10:50:24;22.80;79.20
39899;DHT22;25571;47.876;10.642;2023-06-24T10:52:51;22.80;80.20
39899;DHT22;25571;47.876;10.642;2023-06-24T10:55:24;22.90;79.30
39899;DHT22;25571;47.876;10.642;2023-06-24T10:57:52;22.60;78.80
39899;DHT22;25571;47.876;10.642;2023-06-24T11:00:18;22.80;76.80
39899;DHT22;25571;47.876;10.642;2023-06-24T11:02:45;23.10;75.60
39899;DHT22;25571;47.876;10.642;2023-06-24T11:05:11;22.90;77.20
39899;DHT22;25571;47.876;10.642;2023-06-24T11:07:37;23.10;75.80
39899;DHT22;25571;47.876;10.642;2023-06-24T11:10:04;23.10;76.70
39899;DHT22;25571;47.876;10.642;2023-06-24T11:12:34;23.20;75.60
39899;DHT22;25571;47.876;10.642;2023-06-24T11:15:04;23.30;75.20
39899;DHT22;25571;47.876;10.642;2023-06-24T11:17:30;23.50;74.30
39899;DHT22;25571;47.876;10.642;2023-06-24T11:19:55;24.00;75.40
39899;DHT22;25571;47.876;10.642;2023-06-24T11:22:22;24.10;72.60
39899;DHT22;25571;47.876;10.642;2023-06-24T11:24:48;23.80;75.90
39899;DHT22;25571;47.876;10.642;2023-06-24T11:27:13;24.00;75.70
39899;DHT22;25571;47.876;10.642;2023-06-24T11:29:39;24.30;70.50
39899;DHT22;25571;47.876;10.642;2023-06-24T11:32:06;24.60;71.30
39899;DHT22;25571;47.876;10.642;2023-06-24T11:34:32;24.60;70.50
39899;DHT22;25571;47.876;10.642;2023-06-24T11:36:58;24.70;71.90
39899;DHT22;25571;47.876;10.642;2023-06-24T11:39:24;23.40;74.70
39899;DHT22;25571;47.876;10.642;2023-06-24T11:41:50;23.40;76.00
39899;DHT22;25571;47.876;10.642;2023-06-24T11:44:17;23.30;76.10
39899;DHT22;25571;47.876;10.642;2023-06-24T11:46:42;23.40;76.70
39899;DHT22;25571;47.876;10.642;2023-06-24T11:49:08;23.10;75.60
39899;DHT22;25571;47.876;10.642;2023-06-24T11:51:34;23.70;72.80
39899;DHT22;25571;47.876;10.642;2023-06-24T11:54:01;23.70;73.30
39899;DHT22;25571;47.876;10.642;2023-06-24T11:56:36;23.60;72.80
39899;DHT22;25571;47.876;10.642;2023-06-24T11:59:05;23.60;74.00
39899;DHT22;25571;47.876;10.642;2023-06-24T12:01:32;23.10;73.70
39899;DHT22;25571;47.876;10.642;2023-06-24T12:03:59;23.10;74.20
39899;DHT22;25571;47.876;10.642;2023-06-24T12:06:25;22.90;73.50
39899;DHT22;25571;47.876;10.642;2023-06-24T12:08:50;23.40;74.90
39899;DHT22;25571;47.876;10.642;2023-06-24T12:11:16;23.60;71.10
39899;DHT22;25571;47.876;10.642;2023-06-24T12:13:41;23.60;72.40
39899;DHT22;25571;47.876;10.642;2023-06-24T12:16:06;23.90;71.80
39899;DHT22;25571;47.876;10.642;2023-06-24T12:18:32;24.10;71.10
39899;DHT22;25571;47.876;10.642;2023-06-24T12:20:58;23.80;73.90
39899;DHT22;25571;47.876;10.642;2023-06-24T12:23:23;23.90;72.60
39899;DHT22;25571;47.876;10.642;2023-06-24T12:25:48;23.90;72.00
39899;DHT22;25571;47.876;10.642;2023-06-24T12:28:14;23.20;71.10
39899;DHT22;25571;47.876;10.642;2023-06-24T12:30:39;23.00;70.10
39899;DHT22;25571;47.876;10.642;2023-06-24T12:33:05;23.30;71.50
39899;DHT22;25571;47.876;10.642;2023-06-24T12:35:33;23.10;70.50
39899;DHT22;25571;47.876;10.642;2023-06-24T12:37:59;23.40;70.60
39899;DHT22;25571;47.876;10.642;2023-06-24T12:40:24;23.60;69.80
39899;DHT22;25571;47.876;10.642;2023-06-24T12:42:50;23.90;70.30
39899;DHT22;25571;47.876;10.642;2023-06-24T12:45:15;23.90;70.40
39899;DHT22;25571;47.876;10.642;2023-06-24T12:47:41;23.40;70.30
39899;DHT22;25571;47.876;10.642;2023-06-24T12:50:07;23.20;71.10
39899;DHT22;25571;47.876;10.642;2023-06-24T12:52:33;23.00;70.20
39899;DHT22;25571;47.876;10.642;2023-06-24T12:54:59;23.00;70.10
39899;DHT22;25571;47.876;10.642;2023-06-24T12:57:24;22.80;71.30
39899;DHT22;25571;47.876;10.642;2023-06-24T12:59:49;22.80;73.10
39899;DHT22;25571;47.876;10.642;2023-06-24T13:02:15;22.90;73.10
39899;DHT22;25571;47.876;10.642;2023-06-24T13:04:40;23.00;74.20
39899;DHT22;25571;47.876;10.642;2023-06-24T13:07:06;22.80;73.80
39899;DHT22;25571;47.876;10.642;2023-06-24T13:09:32;23.00;73.20
39899;DHT22;25571;47.876;10.642;2023-06-24T13:11:57;22.90;71.40
39899;DHT22;25571;47.876;10.642;2023-06-24T13:14:23;22.90;71.00
39899;DHT22;25571;47.876;10.642;2023-06-24T13:16:50;22.90;72.60
39899;DHT22;25571;47.876;10.642;2023-06-24T13:19:16;22.80;71.70
39899;DHT22;25571;47.876;10.642;2023-06-24T13:21:42;22.60;72.60
39899;DHT22;25571;47.876;10.642;2023-06-24T13:24:08;22.60;74.10
39899;DHT22;25571;47.876;10.642;2023-06-24T13:26:34;22.70;73.00
39899;DHT22;25571;47.876;10.642;2023-06-24T13:28:59;22.60;73.10
39899;DHT22;25571;47.876;10.642;2023-06-24T13:31:25;22.70;71.00
39899;DHT22;25571;47.876;10.642;2023-06-24T13:33:50;22.70;71.70
39899;DHT22;25571;47.876;10.642;2023-06-24T13:36:30;22.80;71.60
39899;DHT22;25571;47.876;10.642;2023-06-24T13:38:56;22.80;71.60
39899;DHT22;25571;47.876;10.642;2023-06-24T13:41:22;22.60;71.80
39899;DHT22;25571;47.876;10.642;2023-06-24T13:43:47;22.60;72.10
39899;DHT22;25571;47.876;10.642;2023-06-24T13:46:13;22.80;72.00
39899;DHT22;25571;47.876;10.642;2023-06-24T13:48:38;22.80;70.80
39899;DHT22;25571;47.876;10.642;2023-06-24T13:51:04;22.60;71.70
39899;DHT22;25571;47.876;10.642;2023-06-24T13:53:29;22.60;72.50
39899;DHT22;25571;47.876;10.642;2023-06-24T13:55:55;22.60;72.40
39899;DHT22;25571;47.876;10.642;2023-06-24T13:58:20;22.60;71.80
39899;DHT22;25571;47.876;10.642;2023-06-24T14:00:45;22.80;73.90
39899;DHT22;25571;47.876;10.642;2023-06-24T14:03:11;22.90;70.60
39899;DHT22;25571;47.876;10.642;2023-06-24T14:05:36;23.00;71.30
39899;DHT22;25571;47.876;10.642;2023-06-24T14:08:02;23.10;72.20
39899;DHT22;25571;47.876;10.642;2023-06-24T14:10:27;23.10;70.10
39899;DHT22;25571;47.876;10.642;2023-06-24T14:12:53;23.10;69.40
39899;DHT22;25571;47.876;10.642;2023-06-24T14:15:18;23.20;71.30
39899;DHT22;25571;47.876;10.642;2023-06-24T14:17:44;23.30;70.60
39899;DHT22;25571;47.876;10.642;2023-06-24T14:20:09;23.20;70.60
39899;DHT22;25571;47.876;10.642;2023-06-24T14:22:35;23.20;70.00
39899;DHT22;25571;47.876;10.642;2023-06-24T14:25:01;23.10;70.40
39899;DHT22;25571;47.876;10.642;2023-06-24T14:27:26;22.90;70.70
39899;DHT22;25571;47.876;10.642;2023-06-24T14:29:52;22.70;71.60
39899;DHT22;25571;47.876;10.642;2023-06-24T14:32:17;22.60;70.90
39899;DHT22;25571;47.876;10.642;2023-06-24T14:34:43;22.70;71.60
39899;DHT22;25571;47.876;10.642;2023-06-24T14:37:08;22.80;71.20
39899;DHT22;25571;47.876;10.642;2023-06-24T14:39:34;22.60;72.10
39899;DHT22;25571;47.876;10.642;2023-06-24T14:41:59;22.60;70.60
39899;DHT22;25571;47.876;10.642;2023-06-24T14:44:24;22.70;72.00
39899;DHT22;25571;47.876;10.642;2023-06-24T14:46:50;22.60;71.80
39899;DHT22;25571;47.876;10.642;2023-06-24T14:49:15;22.50;72.20
39899;DHT22;25571;47.876;10.642;2023-06-24T14:51:42;22.60;71.90
39899;DHT22;25571;47.876;10.642;2023-06-24T14:54:08;22.60;73.30
39899;DHT22;25571;47.876;10.642;2023-06-24T14:56:33;22.60;72.30
39899;DHT22;25571;47.876;10.642;2023-06-24T14:58:59;22.60;73.90
39899;DHT22;25571;47.876;10.642;2023-06-24T15:01:24;22.50;72.70
39899;DHT22;25571;47.876;10.642;2023-06-24T15:03:50;22.40;73.20
39899;DHT22;25571;47.876;10.642;2023-06-24T15:06:15;22.40;73.60
39899;DHT22;25571;47.876;10.642;2023-06-24T15:08:41;22.40;72.60
39899;DHT22;25571;47.876;10.642;2023-06-24T15:11:06;22.50;71.20
39899;DHT22;25571;47.876;10.642;2023-06-24T15:13:32;22.50;71.70
39899;DHT22;25571;47.876;10.642;2023-06-24T15:15:57;22.60;71.50
39899;DHT22;25571;47.876;10.642;2023-06-24T15:18:24;22.60;71.10
39899;DHT22;25571;47.876;10.642;2023-06-24T15:20:50;22.60;70.70
39899;DHT22;25571;47.876;10.642;2023-06-24T15:23:15;22.70;70.80